createdAt,value
2023-04-11T00:02:01.536Z,67.76
2023-04-11T00:04:28.694Z,68.11
2023-04-11T00:06:55.755Z,68.18
2023-04-11T00:09:23.036Z,68.51
2023-04-11T00:11:49.925Z,68.42
2023-04-11T00:14:20.235Z,68.22
2023-04-11T00:16:49.962Z,68.07
2023-04-11T00:19:17.071Z,68.15
2023-04-11T00:21:44.273Z,68.30
2023-04-11T00:24:11.685Z,68.63
2023-04-11T00:26:38.559Z,68.67
2023-04-11T00:29:06.669Z,68.54
2023-04-11T00:31:33.936Z,68.78
2023-04-11T00:34:01.048Z,69.37
2023-04-11T00:36:28.254Z,69.72
2023-04-11T00:38:55.536Z,70.15
2023-04-11T00:41:24.406Z,70.67
2023-04-11T00:43:51.403Z,71.17
2023-04-11T00:46:18.855Z,70.29
2023-04-11T00:48:48.353Z,69.73
2023-04-11T00:51:15.805Z,69.17
2023-04-11T00:53:46.496Z,69.15
2023-04-11T00:56:13.640Z,69.17
2023-04-11T00:58:43.180Z,68.55
2023-04-11T01:01:10.245Z,68.98
2023-04-11T01:03:39.072Z,69.86
2023-04-11T01:06:07.489Z,69.80
2023-04-11T01:08:35.442Z,69.90
2023-04-11T01:11:03.354Z,69.81
2023-04-11T01:13:31.670Z,70.17
2023-04-11T01:15:58.785Z,69.75
2023-04-11T01:18:26.869Z,69.50
2023-04-11T01:20:53.899Z,70.12
2023-04-11T01:23:25.294Z,70.64
2023-04-11T01:25:52.462Z,71.49
2023-04-11T01:28:20.494Z,71.61
2023-04-11T01:30:48.173Z,72.09
2023-04-11T01:33:16.222Z,71.94
2023-04-11T01:35:43.782Z,72.09
2023-04-11T01:38:13.108Z,73.42
2023-04-11T01:40:40.575Z,75.27
2023-04-11T01:43:09.438Z,76.42
2023-04-11T01:45:36.713Z,77.23
2023-04-11T01:48:07.875Z,78.74
2023-04-11T01:50:36.011Z,80.05
2023-04-11T01:53:03.113Z,80.65
2023-04-11T01:55:30.340Z,79.46
2023-04-11T01:57:57.411Z,79.24
2023-04-11T02:00:24.498Z,79.35
2023-04-11T02:02:51.828Z,80.52
2023-04-11T02:05:24.500Z,81.40
2023-04-11T02:07:53.789Z,82.11
2023-04-11T02:10:21.735Z,82.81
2023-04-11T02:12:48.892Z,83.26
2023-04-11T02:15:18.541Z,83.56
2023-04-11T02:17:45.772Z,84.18
2023-04-11T02:20:16.521Z,84.57
2023-04-11T02:22:43.479Z,84.76
2023-04-11T02:25:10.506Z,84.89
2023-04-11T02:27:37.581Z,85.22
2023-04-11T02:30:06.294Z,85.17
2023-04-11T02:32:35.895Z,84.78
2023-04-11T02:35:02.897Z,84.59
2023-04-11T02:37:30.002Z,85.01
2023-04-11T02:39:59.547Z,85.47
2023-04-11T02:42:29.048Z,85.81
2023-04-11T02:44:56.173Z,86.12
2023-04-11T02:47:28.525Z,86.43
2023-04-11T02:50:02.927Z,86.87
2023-04-11T02:52:39.402Z,87.13
2023-04-11T02:55:06.692Z,87.25
2023-04-11T02:57:33.571Z,87.50
2023-04-11T03:00:00.809Z,87.30
2023-04-11T03:02:39.227Z,87.24
2023-04-11T03:05:07.510Z,87.27
2023-04-11T03:07:40.920Z,87.57
2023-04-11T03:10:09.954Z,87.99
2023-04-11T03:12:37.557Z,88.28
2023-04-11T03:15:06.851Z,88.21
2023-04-11T03:17:36.559Z,88.34
2023-04-11T03:20:07.318Z,88.15
2023-04-11T03:22:34.839Z,88.16
2023-04-11T03:25:01.824Z,88.15
2023-04-11T03:27:30.334Z,88.29
2023-04-11T03:30:02.481Z,88.00
2023-04-11T03:32:39.266Z,87.95
2023-04-11T03:35:06.655Z,87.65
2023-04-11T03:37:34.086Z,87.79
2023-04-11T03:40:04.673Z,87.64
2023-04-11T03:42:32.558Z,87.47
2023-04-11T03:45:01.521Z,87.21
2023-04-11T03:47:28.985Z,87.07
2023-04-11T03:50:01.919Z,86.90
2023-04-11T03:52:34.940Z,86.78
2023-04-11T03:55:06.157Z,86.89
2023-04-11T03:57:33.718Z,87.21
2023-04-11T04:00:15.343Z,87.22
2023-04-11T04:02:42.500Z,87.23
2023-04-11T04:05:14.635Z,86.79
2023-04-11T04:07:43.003Z,86.42
2023-04-11T04:10:18.204Z,86.09
2023-04-11T04:12:52.615Z,86.21
2023-04-11T04:15:33.993Z,85.65
2023-04-11T04:18:03.963Z,85.07
2023-04-11T04:20:59.523Z,85.00
2023-04-11T04:23:27.063Z,85.06
2023-04-11T04:26:15.303Z,85.22
2023-04-11T04:28:48.050Z,84.79
2023-04-11T04:31:25.802Z,84.27
2023-04-11T04:34:09.999Z,84.24
2023-04-11T04:36:47.840Z,83.95
2023-04-11T04:39:25.559Z,83.56
2023-04-11T04:42:04.365Z,83.25
2023-04-11T04:44:37.617Z,82.69
2023-04-11T04:47:12.966Z,81.95
2023-04-11T04:49:42.189Z,81.34
2023-04-11T04:52:09.195Z,80.85
2023-04-11T04:54:36.098Z,80.26
2023-04-11T04:57:03.276Z,80.12
2023-04-11T04:59:32.463Z,79.79
2023-04-11T05:02:11.082Z,79.18
2023-04-11T05:04:39.223Z,79.05
2023-04-11T05:07:13.852Z,78.37
2023-04-11T05:10:07.077Z,77.39
2023-04-11T05:13:03.982Z,77.08
2023-04-11T05:15:31.451Z,76.73
2023-04-11T05:17:59.358Z,76.75
2023-04-11T05:20:29.889Z,76.03
2023-04-11T05:23:19.992Z,75.60
2023-04-11T05:25:51.038Z,75.06
2023-04-11T05:28:21.245Z,74.42
2023-04-11T05:30:49.359Z,74.00
2023-04-11T05:33:17.234Z,73.74
2023-04-11T05:35:44.753Z,73.46
2023-04-11T05:38:11.760Z,72.59
2023-04-11T05:40:40.109Z,71.26
2023-04-11T05:43:07.178Z,69.92
2023-04-11T05:45:34.548Z,69.08
2023-04-11T05:48:01.747Z,68.99
2023-04-11T05:50:28.866Z,68.52
2023-04-11T05:52:56.219Z,67.72
2023-04-11T05:55:23.249Z,67.92
2023-04-11T05:57:50.465Z,67.65
2023-04-11T06:00:18.447Z,66.97
2023-04-11T06:02:46.400Z,66.36
2023-04-11T06:06:08.724Z,65.96
2023-04-11T06:08:35.787Z,65.40
2023-04-11T06:11:03.928Z,63.62
2023-04-11T06:13:33.943Z,62.23
2023-04-11T06:16:07.828Z,61.23
2023-04-11T06:18:39.353Z,60.31
2023-04-11T06:21:09.008Z,60.82
2023-04-11T06:23:36.046Z,60.09
2023-04-11T06:26:06.081Z,58.58
2023-04-11T06:28:36.241Z,57.29
2023-04-11T06:31:05.314Z,57.20
2023-04-11T06:33:33.263Z,57.55
2023-04-11T06:36:05.994Z,57.58
2023-04-11T06:38:36.894Z,55.70
2023-04-11T06:41:04.058Z,56.48
2023-04-11T06:43:32.147Z,57.35
2023-04-11T06:45:59.154Z,57.15
2023-04-11T06:48:26.336Z,56.12
2023-04-11T06:50:53.319Z,56.65
2023-04-11T06:53:20.337Z,57.04
2023-04-11T06:55:50.967Z,57.01
2023-04-11T06:58:21.093Z,57.23
2023-04-11T07:00:48.139Z,56.98
2023-04-11T07:03:33.981Z,56.81
2023-04-11T07:06:01.819Z,56.88
2023-04-11T07:08:30.689Z,56.42
2023-04-11T07:10:59.700Z,57.03
2023-04-11T07:13:26.878Z,56.24
2023-04-11T07:15:53.982Z,56.42
2023-04-11T07:18:39.615Z,56.87
2023-04-11T07:21:27.494Z,55.32
2023-04-11T07:23:55.116Z,54.13
2023-04-11T07:26:23.992Z,53.19
2023-04-11T07:29:14.383Z,53.59
2023-04-11T07:32:00.673Z,52.50
2023-04-11T07:34:27.975Z,51.70
2023-04-11T07:37:00.912Z,51.08
2023-04-11T07:39:31.380Z,49.01
2023-04-11T07:41:58.390Z,49.67
2023-04-11T07:44:27.561Z,48.88
2023-04-11T07:46:54.538Z,48.94
2023-04-11T07:49:22.004Z,47.12
2023-04-11T07:51:48.932Z,46.71
2023-04-11T07:54:15.909Z,44.99
2023-04-11T07:56:45.979Z,43.51
2023-04-11T07:59:16.466Z,42.91
2023-04-11T08:01:43.526Z,42.38
2023-04-11T08:04:11.525Z,41.08
2023-04-11T08:06:41.835Z,40.61
2023-04-11T08:09:08.759Z,41.80
2023-04-11T08:11:37.245Z,41.99
2023-04-11T08:14:04.464Z,40.70
2023-04-11T08:16:34.162Z,40.20
2023-04-11T08:19:01.261Z,40.28
2023-04-11T08:21:30.320Z,40.27
2023-04-11T08:24:16.271Z,39.84
2023-04-11T08:26:43.452Z,39.16
2023-04-11T08:29:13.387Z,39.44
2023-04-11T08:31:48.103Z,38.83
2023-04-11T08:34:24.804Z,38.25
2023-04-11T08:37:10.741Z,38.21
2023-04-11T08:39:38.552Z,36.91
2023-04-11T08:42:05.926Z,36.11
2023-04-11T08:44:37.133Z,35.87
2023-04-11T08:47:07.566Z,35.38
2023-04-11T08:49:56.435Z,35.07
2023-04-11T08:52:49.762Z,34.31
2023-04-11T08:55:37.822Z,34.00
2023-04-11T08:58:04.900Z,34.05
2023-04-11T09:00:50.400Z,34.42
2023-04-11T09:03:17.802Z,33.38
2023-04-11T09:06:04.478Z,33.08
2023-04-11T09:08:38.897Z,31.87
2023-04-11T09:11:08.921Z,31.58
2023-04-11T09:14:12.667Z,31.49
2023-04-11T09:16:54.470Z,31.12
2023-04-11T09:19:32.478Z,29.90
2023-04-11T09:22:01.699Z,29.17
2023-04-11T09:24:34.013Z,29.08
2023-04-11T09:27:14.238Z,29.05
2023-04-11T09:30:06.545Z,28.88
2023-04-11T09:32:36.609Z,29.01
2023-04-11T09:35:09.855Z,29.81
2023-04-11T09:37:47.114Z,30.07
2023-04-11T09:40:15.073Z,29.70
2023-04-11T09:42:42.832Z,29.50
2023-04-11T09:45:21.759Z,29.72
2023-04-11T09:48:08.329Z,28.67
2023-04-11T09:50:37.264Z,27.79
2023-04-11T09:53:06.583Z,27.84
2023-04-11T09:55:33.661Z,27.54
2023-04-11T09:58:00.952Z,26.64
2023-04-11T10:00:34.195Z,26.29
2023-04-11T10:03:04.327Z,26.55
2023-04-11T10:05:32.012Z,27.28
2023-04-11T10:08:09.097Z,27.80
2023-04-11T10:10:36.948Z,27.21
2023-04-11T10:13:42.143Z,25.50
2023-04-11T10:16:19.614Z,24.43
2023-04-11T10:18:52.422Z,23.76
2023-04-11T10:21:34.864Z,23.56
2023-04-11T10:24:18.141Z,23.86
2023-04-11T10:26:50.281Z,23.43
2023-04-11T10:29:43.453Z,23.16
2023-04-11T10:32:21.652Z,23.48
2023-04-11T10:34:56.231Z,23.73
2023-04-11T10:37:36.696Z,23.38
2023-04-11T10:40:12.395Z,22.76
2023-04-11T10:42:44.592Z,23.00
2023-04-11T10:45:20.026Z,25.91
2023-04-11T10:48:13.110Z,25.86
2023-04-11T10:50:44.911Z,24.06
2023-04-11T10:53:34.344Z,22.91
2023-04-11T10:56:02.234Z,22.21
2023-04-11T10:58:37.744Z,21.92
2023-04-11T11:01:21.286Z,23.48
2023-04-11T11:04:07.789Z,25.41
2023-04-11T11:06:46.114Z,26.36
2023-04-11T11:09:23.349Z,26.80
2023-04-11T11:12:16.591Z,27.67
2023-04-11T11:14:45.276Z,27.72
2023-04-11T11:17:15.852Z,26.33
2023-04-11T11:19:47.387Z,24.46
2023-04-11T11:22:26.320Z,25.32
2023-04-11T11:24:53.569Z,25.92
2023-04-11T11:27:25.130Z,26.62
2023-04-11T11:29:53.463Z,24.81
2023-04-11T11:32:28.521Z,25.88
2023-04-11T11:34:57.816Z,26.42
2023-04-11T11:37:25.130Z,26.72
2023-04-11T11:39:52.512Z,27.00
2023-04-11T11:42:22.017Z,27.55
2023-04-11T11:44:49.011Z,27.19
2023-04-11T11:47:16.586Z,27.64
2023-04-11T11:49:54.907Z,25.16
2023-04-11T11:52:36.688Z,26.01
2023-04-11T11:55:08.097Z,26.69
2023-04-11T11:57:37.844Z,27.15
2023-04-11T12:00:14.670Z,27.61
2023-04-11T12:02:47.532Z,28.00
2023-04-11T12:05:14.750Z,28.18
2023-04-11T12:07:41.719Z,28.65
2023-04-11T12:10:14.550Z,28.79
2023-04-11T12:12:43.290Z,28.90
2023-04-11T12:15:21.293Z,28.94
2023-04-11T12:17:57.730Z,29.56
2023-04-11T12:20:26.852Z,29.77
2023-04-11T12:22:55.084Z,29.20
2023-04-11T12:25:23.187Z,29.37
2023-04-11T12:27:50.265Z,29.98
2023-04-11T12:30:18.107Z,29.51
2023-04-11T12:32:46.389Z,29.59
2023-04-11T12:35:13.851Z,29.53
2023-04-11T12:37:41.311Z,29.45
2023-04-11T12:40:12.614Z,29.13
2023-04-11T12:42:53.602Z,28.00
2023-04-11T12:45:23.594Z,26.21
2023-04-11T12:47:50.761Z,23.21
2023-04-11T12:50:18.360Z,22.22
2023-04-11T12:52:45.602Z,21.33
2023-04-11T12:55:16.336Z,20.30
2023-04-11T12:57:43.909Z,19.96
2023-04-11T13:00:12.896Z,19.74
2023-04-11T13:02:45.235Z,21.21
2023-04-11T13:05:15.550Z,23.89
2023-04-11T13:07:45.182Z,25.53
2023-04-11T13:10:14.098Z,26.13
2023-04-11T13:12:45.167Z,27.30
2023-04-11T13:15:14.508Z,26.94
2023-04-11T13:17:43.775Z,26.58
2023-04-11T13:20:11.733Z,25.92
2023-04-11T13:22:42.429Z,26.52
2023-04-11T13:25:10.315Z,27.02
2023-04-11T13:27:39.492Z,27.51
2023-04-11T13:30:07.993Z,27.77
2023-04-11T13:32:35.112Z,26.63
2023-04-11T13:35:02.389Z,26.21
2023-04-11T13:37:30.780Z,26.54
2023-04-11T13:40:00.621Z,27.20
2023-04-11T13:42:27.625Z,27.88
2023-04-11T13:44:56.510Z,27.84
2023-04-11T13:47:25.684Z,28.42
2023-04-11T13:49:59.807Z,27.46
2023-04-11T13:52:27.470Z,27.29
2023-04-11T13:54:56.395Z,27.63
2023-04-11T13:57:26.937Z,28.03
2023-04-11T13:59:53.977Z,27.23
2023-04-11T14:02:21.303Z,24.70
2023-04-11T14:04:51.149Z,22.91
2023-04-11T14:07:18.320Z,22.45
2023-04-11T14:09:45.551Z,21.85
2023-04-11T14:12:12.519Z,21.27
2023-04-11T14:14:39.889Z,21.08
2023-04-11T14:17:11.836Z,20.61
2023-04-11T14:19:38.857Z,19.75
2023-04-11T14:22:05.898Z,20.27
2023-04-11T14:24:33.012Z,19.74
2023-04-11T14:27:03.278Z,19.15
2023-04-11T14:29:31.243Z,19.48
2023-04-11T14:31:59.481Z,19.11
2023-04-11T14:34:26.997Z,20.40
2023-04-11T14:36:54.249Z,23.16
2023-04-11T14:39:21.456Z,24.38
2023-04-11T14:41:48.730Z,25.71
2023-04-11T14:44:18.834Z,25.86
2023-04-11T14:46:45.958Z,25.50
2023-04-11T14:49:13.010Z,25.68
2023-04-11T14:51:40.138Z,26.51
2023-04-11T14:54:11.612Z,25.08
2023-04-11T14:56:38.829Z,23.10
2023-04-11T14:59:06.887Z,22.92
2023-04-11T15:01:37.252Z,22.19
2023-04-11T15:04:07.064Z,21.53
2023-04-11T15:06:35.276Z,20.88
2023-04-11T15:09:03.559Z,21.23
2023-04-11T15:11:31.150Z,21.28
2023-04-11T15:13:58.303Z,21.36
2023-04-11T15:16:30.835Z,22.02
2023-04-11T15:18:57.923Z,23.86
2023-04-11T15:21:24.979Z,24.87
2023-04-11T15:23:52.224Z,25.40
2023-04-11T15:26:19.289Z,25.41
2023-04-11T15:28:49.107Z,26.13
2023-04-11T15:31:27.141Z,26.75
2023-04-11T15:33:59.976Z,27.35
2023-04-11T15:36:28.749Z,27.85
2023-04-11T15:38:56.022Z,27.79
2023-04-11T15:41:23.008Z,27.98
2023-04-11T15:43:49.994Z,28.41
2023-04-11T15:46:17.213Z,28.67
2023-04-11T15:48:44.899Z,28.75
2023-04-11T15:51:14.198Z,29.20
2023-04-11T15:53:41.353Z,29.28
2023-04-11T15:56:08.686Z,29.21
2023-04-11T15:58:38.569Z,29.67
2023-04-11T16:01:05.949Z,29.84
2023-04-11T16:03:33.310Z,30.03
2023-04-11T16:06:01.365Z,30.25
2023-04-11T16:08:28.670Z,30.59
2023-04-11T16:10:55.968Z,30.89
2023-04-11T16:13:23.054Z,31.03
2023-04-11T16:15:50.113Z,31.24
2023-04-11T16:18:17.146Z,32.30
2023-04-11T16:20:44.224Z,33.66
2023-04-11T16:23:13.073Z,35.19
2023-04-11T16:25:40.270Z,35.63
2023-04-11T16:28:07.377Z,35.89
2023-04-11T16:30:35.731Z,34.94
2023-04-11T16:33:04.431Z,34.94
2023-04-11T16:35:31.879Z,35.82
2023-04-11T16:38:00.080Z,37.23
2023-04-11T16:40:27.607Z,37.39
2023-04-11T16:42:55.034Z,38.23
2023-04-11T16:45:22.201Z,38.49
2023-04-11T16:47:50.882Z,39.18
2023-04-11T16:50:18.133Z,39.91
2023-04-11T16:53:04.266Z,37.84
2023-04-11T16:55:50.540Z,38.23
2023-04-11T16:58:18.363Z,37.65
2023-04-11T17:01:04.095Z,37.47
2023-04-11T17:03:31.323Z,37.86
2023-04-11T17:05:58.351Z,39.37
2023-04-11T17:08:26.847Z,38.56
2023-04-11T17:10:54.197Z,38.79
2023-04-11T17:13:32.118Z,39.13
2023-04-11T17:16:05.462Z,39.31
2023-04-11T17:18:41.578Z,38.73
2023-04-11T17:21:11.719Z,39.97
2023-04-11T17:23:42.310Z,39.21
2023-04-11T17:26:13.548Z,39.84
2023-04-11T17:28:41.114Z,39.22
2023-04-11T17:31:17.594Z,39.24
2023-04-11T17:33:45.114Z,39.28
2023-04-11T17:36:13.150Z,39.83
2023-04-11T17:38:43.622Z,39.72
2023-04-11T17:41:14.815Z,39.30
2023-04-11T17:43:43.816Z,40.15
2023-04-11T17:46:10.928Z,40.11
2023-04-11T17:48:41.113Z,40.50
2023-04-11T17:51:08.553Z,40.15
2023-04-11T17:53:37.160Z,40.56
2023-04-11T17:56:06.182Z,40.55
2023-04-11T17:58:34.174Z,40.94
2023-04-11T18:01:03.858Z,41.27
2023-04-11T18:03:50.646Z,40.61
2023-04-11T18:06:36.263Z,40.89
2023-04-11T18:09:05.924Z,41.22
2023-04-11T18:11:33.156Z,41.36
2023-04-11T18:14:01.039Z,41.31
2023-04-11T18:16:29.402Z,41.59
2023-04-11T18:18:57.064Z,41.55
2023-04-11T18:21:26.854Z,42.01
2023-04-11T18:23:54.054Z,41.73
2023-04-11T18:26:21.382Z,41.74
2023-04-11T18:28:48.429Z,41.74
2023-04-11T18:31:15.841Z,41.54
2023-04-11T18:33:46.120Z,41.73
2023-04-11T18:36:17.883Z,42.27
2023-04-11T18:38:45.444Z,42.52
2023-04-11T18:43:57.643Z,41.81
2023-04-11T18:46:24.794Z,42.28
2023-04-11T18:48:56.767Z,42.27
2023-04-11T18:51:23.817Z,42.81
2023-04-11T18:53:56.670Z,42.67
2023-04-11T18:56:23.878Z,42.71
2023-04-11T19:01:18.459Z,42.89
2023-04-11T19:03:47.149Z,43.05
2023-04-11T19:06:15.164Z,43.31
2023-04-11T19:09:00.794Z,43.46
2023-04-11T19:11:31.271Z,43.83
2023-04-11T19:14:02.223Z,43.72
2023-04-11T19:16:33.489Z,43.69
2023-04-11T19:19:01.302Z,44.02
2023-04-11T19:21:36.956Z,44.30
2023-04-11T19:27:21.728Z,44.56
2023-04-11T19:29:52.993Z,44.24
2023-04-11T19:32:22.464Z,44.46
2023-04-11T19:34:50.487Z,44.77
2023-04-11T19:37:19.525Z,44.62
2023-04-11T19:39:47.551Z,44.64
2023-04-11T19:42:16.652Z,45.01
2023-04-11T19:44:43.688Z,44.83
2023-04-11T19:47:11.007Z,44.85
2023-04-11T19:49:40.730Z,44.91
2023-04-11T19:52:07.854Z,45.06
2023-04-11T19:54:34.791Z,45.56
2023-04-11T19:57:02.263Z,45.74
2023-04-11T19:59:29.898Z,45.85
2023-04-11T20:02:01.692Z,45.87
2023-04-11T20:04:30.404Z,45.80
2023-04-11T20:07:00.829Z,45.62
2023-04-11T20:09:35.376Z,45.70
2023-04-11T20:12:06.969Z,45.47
2023-04-11T20:14:39.268Z,45.27
2023-04-11T20:17:10.780Z,45.58
2023-04-11T20:19:39.318Z,45.55
2023-04-11T20:22:18.455Z,45.65
2023-04-11T20:24:47.577Z,45.94
2023-04-11T20:27:17.404Z,45.99
2023-04-11T20:29:44.654Z,45.92
2023-04-11T20:32:14.254Z,45.83
2023-04-11T20:34:47.438Z,45.96
2023-04-11T20:37:34.531Z,46.07
2023-04-11T20:40:07.365Z,46.01
2023-04-11T20:42:56.406Z,45.79
2023-04-11T20:45:28.727Z,46.20
2023-04-11T20:48:14.273Z,46.21
2023-04-11T20:50:42.149Z,46.04
2023-04-11T20:53:09.129Z,45.85
2023-04-11T20:55:39.265Z,45.86
2023-04-11T20:58:24.832Z,46.10
2023-04-11T21:01:32.789Z,45.92
2023-04-11T21:04:04.299Z,45.56
2023-04-11T21:06:36.582Z,45.51
2023-04-11T21:09:07.127Z,45.44
2023-04-11T21:12:12.209Z,45.02
2023-04-11T21:14:39.358Z,44.99
2023-04-11T21:17:07.564Z,44.61
2023-04-11T21:19:53.069Z,44.97
2023-04-11T21:22:22.274Z,44.88
2023-04-11T21:25:26.197Z,45.07
2023-04-11T21:28:11.931Z,45.15
2023-04-11T21:30:39.685Z,44.85
2023-04-11T21:33:06.829Z,44.61
2023-04-11T21:35:55.805Z,44.75
2023-04-11T21:38:41.768Z,44.88
2023-04-11T21:41:17.698Z,44.99
2023-04-11T21:44:22.029Z,45.09
2023-04-11T21:46:50.489Z,45.08
2023-04-11T21:49:54.919Z,44.85
2023-04-11T21:52:21.916Z,44.93
2023-04-11T21:54:48.933Z,45.00
2023-04-11T21:57:16.081Z,45.21
2023-04-11T22:00:21.087Z,45.35
2023-04-11T22:03:11.907Z,45.52
2023-04-11T22:05:42.856Z,45.68
2023-04-11T22:08:50.840Z,45.73
2023-04-11T22:11:18.304Z,45.56
2023-04-11T22:13:46.647Z,45.75
2023-04-11T22:16:32.364Z,45.97
2023-04-11T22:19:00.678Z,46.06
2023-04-11T22:21:28.711Z,45.98
2023-04-11T22:23:57.197Z,46.17
2023-04-11T22:26:34.334Z,46.30
2023-04-11T22:29:06.072Z,46.05
2023-04-11T22:31:38.622Z,46.14
2023-04-11T22:34:08.455Z,46.23
2023-04-11T22:36:54.033Z,46.17
2023-04-11T22:39:22.131Z,45.83
2023-04-11T22:41:50.680Z,45.80
2023-04-11T22:44:36.503Z,46.06
2023-04-11T22:47:30.145Z,45.89
2023-04-11T22:49:58.067Z,45.63
2023-04-11T22:52:43.617Z,45.63
2023-04-11T22:55:16.305Z,45.87
2023-04-11T22:57:43.194Z,45.78
2023-04-11T23:00:30.086Z,46.18
2023-04-11T23:03:15.855Z,46.23
2023-04-11T23:05:42.947Z,46.10
2023-04-11T23:08:10.260Z,46.32
2023-04-11T23:10:39.256Z,46.68
2023-04-11T23:13:09.362Z,46.78
2023-04-11T23:15:37.436Z,46.82
2023-04-11T23:18:04.630Z,46.92
2023-04-11T23:20:39.121Z,47.25
2023-04-11T23:23:07.101Z,47.21
2023-04-11T23:25:37.469Z,47.43
2023-04-11T23:28:04.390Z,47.89
2023-04-11T23:30:31.450Z,47.54
2023-04-11T23:32:58.540Z,47.38
2023-04-11T23:35:26.200Z,47.56
2023-04-11T23:37:53.098Z,47.52
2023-04-11T23:40:23.114Z,47.56
2023-04-11T23:42:50.112Z,47.46
2023-04-11T23:45:20.599Z,47.63
2023-04-11T23:47:48.539Z,47.77
2023-04-11T23:50:15.922Z,47.67
2023-04-11T23:52:45.427Z,48.09
2023-04-11T23:55:12.877Z,47.90
2023-04-11T23:57:41.197Z,47.87
